sensor_id;sensor_type;location;lat;lon;timestamp;temperature;humidity
13563;DHT22;31150;49.072;7.970;2022-07-09T00:04:51;16.80;99.90
13563;DHT22;31150;49.072;7.970;2022-07-09T00:16:18;16.70;99.90
13563;DHT22;31150;49.072;7.970;2022-07-09T00:21:21;16.70;99.90
13563;DHT22;31150;49.072;7.970;2022-07-09T00:26:23;16.60;99.90
13563;DHT22;31150;49.072;7.970;2022-07-09T00:31:26;16.60;99.90
13563;DHT22;31150;49.072;7.970;2022-07-09T00:36:29;16.50;99.90
13563;DHT22;31150;49.072;7.970;2022-07-09T00:41:31;16.50;99.90
13563;DHT22;31150;49.072;7.970;2022-07-09T00:46:34;16.50;99.90
13563;DHT22;31150;49.072;7.970;2022-07-09T00:51:37;16.40;99.90
13563;DHT22;31150;49.072;7.970;2022-07-09T00:56:41;16.30;99.90
13563;DHT22;31150;49.072;7.970;2022-07-09T01:01:44;16.30;99.90
13563;DHT22;31150;49.072;7.970;2022-07-09T01:06:46;16.30;99.90
13563;DHT22;31150;49.072;7.970;2022-07-09T01:11:49;16.20;99.90
13563;DHT22;31150;49.072;7.970;2022-07-09T01:17:00;16.10;99.90
13563;DHT22;31150;49.072;7.970;2022-07-09T01:22:04;16.20;99.90
13563;DHT22;31150;49.072;7.970;2022-07-09T01:27:08;16.20;99.90
13563;DHT22;31150;49.072;7.970;2022-07-09T01:32:11;16.20;99.90
13563;DHT22;31150;49.072;7.970;2022-07-09T01:37:14;16.20;99.90
13563;DHT22;31150;49.072;7.970;2022-07-09T01:42:21;16.30;99.90
13563;DHT22;31150;49.072;7.970;2022-07-09T01:47:24;16.30;99.90
13563;DHT22;31150;49.072;7.970;2022-07-09T01:52:26;16.30;99.90
13563;DHT22;31150;49.072;7.970;2022-07-09T01:57:30;16.30;99.90
13563;DHT22;31150;49.072;7.970;2022-07-09T02:02:33;16.30;99.90
13563;DHT22;31150;49.072;7.970;2022-07-09T02:07:36;16.20;99.90
13563;DHT22;31150;49.072;7.970;2022-07-09T02:12:39;16.10;99.90
13563;DHT22;31150;49.072;7.970;2022-07-09T02:17:42;16.10;99.90
13563;DHT22;31150;49.072;7.970;2022-07-09T02:22:45;16.10;99.90
13563;DHT22;31150;49.072;7.970;2022-07-09T02:27:47;16.10;99.90
13563;DHT22;31150;49.072;7.970;2022-07-09T02:32:50;16.10;99.90
13563;DHT22;31150;49.072;7.970;2022-07-09T02:37:52;15.90;99.90
13563;DHT22;31150;49.072;7.970;2022-07-09T02:42:55;15.50;99.90
13563;DHT22;31150;49.072;7.970;2022-07-09T02:47:58;15.80;99.90
13563;DHT22;31150;49.072;7.970;2022-07-09T02:53:00;15.80;99.90
13563;DHT22;31150;49.072;7.970;2022-07-09T02:58:03;15.90;99.90
13563;DHT22;31150;49.072;7.970;2022-07-09T03:03:07;15.90;99.90
13563;DHT22;31150;49.072;7.970;2022-07-09T03:08:10;15.90;99.90
13563;DHT22;31150;49.072;7.970;2022-07-09T03:13:12;16.00;99.90
13563;DHT22;31150;49.072;7.970;2022-07-09T03:18:15;16.10;99.90
13563;DHT22;31150;49.072;7.970;2022-07-09T03:23:18;16.20;99.90
13563;DHT22;31150;49.072;7.970;2022-07-09T03:28:20;16.20;99.90
13563;DHT22;31150;49.072;7.970;2022-07-09T03:33:23;16.20;99.90
13563;DHT22;31150;49.072;7.970;2022-07-09T03:38:25;16.20;99.90
13563;DHT22;31150;49.072;7.970;2022-07-09T03:43:28;16.10;99.90
13563;DHT22;31150;49.072;7.970;2022-07-09T03:48:31;16.10;99.90
13563;DHT22;31150;49.072;7.970;2022-07-09T03:53:34;16.10;99.90
13563;DHT22;31150;49.072;7.970;2022-07-09T03:58:38;16.20;99.90
13563;DHT22;31150;49.072;7.970;2022-07-09T04:03:41;16.20;99.90
13563;DHT22;31150;49.072;7.970;2022-07-09T04:08:44;16.20;99.90
13563;DHT22;31150;49.072;7.970;2022-07-09T04:13:46;16.20;99.90
13563;DHT22;31150;49.072;7.970;2022-07-09T04:18:49;16.40;99.90
13563;DHT22;31150;49.072;7.970;2022-07-09T04:23:51;16.40;99.90
13563;DHT22;31150;49.072;7.970;2022-07-09T04:28:55;16.60;99.90
13563;DHT22;31150;49.072;7.970;2022-07-09T04:33:57;16.80;99.90
13563;DHT22;31150;49.072;7.970;2022-07-09T04:39:00;16.80;99.90
13563;DHT22;31150;49.072;7.970;2022-07-09T04:44:03;17.00;99.90
13563;DHT22;31150;49.072;7.970;2022-07-09T04:49:05;17.30;99.90
13563;DHT22;31150;49.072;7.970;2022-07-09T04:54:08;17.40;99.90
13563;DHT22;31150;49.072;7.970;2022-07-09T04:59:11;17.50;99.90
13563;DHT22;31150;49.072;7.970;2022-07-09T05:04:13;17.70;99.90
13563;DHT22;31150;49.072;7.970;2022-07-09T05:09:16;17.80;99.90
13563;DHT22;31150;49.072;7.970;2022-07-09T05:14:19;17.90;99.90
13563;DHT22;31150;49.072;7.970;2022-07-09T05:19:21;17.90;99.90
13563;DHT22;31150;49.072;7.970;2022-07-09T05:24:24;18.20;99.90
13563;DHT22;31150;49.072;7.970;2022-07-09T05:29:27;18.50;99.90
13563;DHT22;31150;49.072;7.970;2022-07-09T05:34:29;18.60;99.90
13563;DHT22;31150;49.072;7.970;2022-07-09T05:39:32;18.90;99.90
13563;DHT22;31150;49.072;7.970;2022-07-09T05:44:34;19.10;99.90
13563;DHT22;31150;49.072;7.970;2022-07-09T05:49:37;19.40;99.90
13563;DHT22;31150;49.072;7.970;2022-07-09T05:54:39;19.90;99.90
13563;DHT22;31150;49.072;7.970;2022-07-09T05:59:42;20.20;99.90
13563;DHT22;31150;49.072;7.970;2022-07-09T06:04:45;20.50;99.90
13563;DHT22;31150;49.072;7.970;2022-07-09T06:09:48;20.40;99.90
13563;DHT22;31150;49.072;7.970;2022-07-09T06:14:50;20.80;99.90
13563;DHT22;31150;49.072;7.970;2022-07-09T06:19:53;21.10;99.90
13563;DHT22;31150;49.072;7.970;2022-07-09T06:24:55;21.40;99.90
13563;DHT22;31150;49.072;7.970;2022-07-09T06:29:58;21.70;99.90
13563;DHT22;31150;49.072;7.970;2022-07-09T06:35:01;21.90;99.90
13563;DHT22;31150;49.072;7.970;2022-07-09T06:40:05;22.20;99.90
13563;DHT22;31150;49.072;7.970;2022-07-09T06:45:09;22.20;99.90
13563;DHT22;31150;49.072;7.970;2022-07-09T06:50:12;22.50;99.90
13563;DHT22;31150;49.072;7.970;2022-07-09T06:55:15;22.90;99.90
13563;DHT22;31150;49.072;7.970;2022-07-09T07:00:18;23.00;99.90
13563;DHT22;31150;49.072;7.970;2022-07-09T07:05:20;23.10;99.90
13563;DHT22;31150;49.072;7.970;2022-07-09T07:10:23;23.30;99.90
13563;DHT22;31150;49.072;7.970;2022-07-09T07:15:27;23.30;99.90
13563;DHT22;31150;49.072;7.970;2022-07-09T07:26:10;24.50;99.90
13563;DHT22;31150;49.072;7.970;2022-07-09T07:31:33;24.70;99.90
13563;DHT22;31150;49.072;7.970;2022-07-09T07:36:38;25.20;99.90
13563;DHT22;31150;49.072;7.970;2022-07-09T07:47:41;25.50;99.90
13563;DHT22;31150;49.072;7.970;2022-07-09T07:52:44;25.80;99.90
13563;DHT22;31150;49.072;7.970;2022-07-09T08:28:32;29.70;96.30
13563;DHT22;31150;49.072;7.970;2022-07-09T08:40:51;31.30;88.30
13563;DHT22;31150;49.072;7.970;2022-07-09T08:46:20;31.60;83.40
13563;DHT22;31150;49.072;7.970;2022-07-09T08:51:23;32.90;77.10
13563;DHT22;31150;49.072;7.970;2022-07-09T08:56:31;33.60;68.50
13563;DHT22;31150;49.072;7.970;2022-07-09T09:08:21;32.30;65.00
13563;DHT22;31150;49.072;7.970;2022-07-09T09:13:24;32.10;67.00
13563;DHT22;31150;49.072;7.970;2022-07-09T09:18:51;30.70;68.60
13563;DHT22;31150;49.072;7.970;2022-07-09T09:23:56;29.10;75.30
13563;DHT22;31150;49.072;7.970;2022-07-09T09:29:03;29.10;76.20
13563;DHT22;31150;49.072;7.970;2022-07-09T09:34:15;28.70;81.70
13563;DHT22;31150;49.072;7.970;2022-07-09T09:39:25;29.50;76.50
13563;DHT22;31150;49.072;7.970;2022-07-09T09:44:32;32.30;68.80
13563;DHT22;31150;49.072;7.970;2022-07-09T09:49:42;34.40;64.40
13563;DHT22;31150;49.072;7.970;2022-07-09T09:54:45;34.70;67.00
13563;DHT22;31150;49.072;7.970;2022-07-09T09:59:49;35.20;67.40
13563;DHT22;31150;49.072;7.970;2022-07-09T10:04:55;33.50;58.60
13563;DHT22;31150;49.072;7.970;2022-07-09T10:09:59;33.30;60.00
13563;DHT22;31150;49.072;7.970;2022-07-09T10:20:31;30.60;66.00
13563;DHT22;31150;49.072;7.970;2022-07-09T10:25:45;29.80;70.10
13563;DHT22;31150;49.072;7.970;2022-07-09T10:30:48;30.00;70.90
13563;DHT22;31150;49.072;7.970;2022-07-09T10:35:55;33.60;62.50
13563;DHT22;31150;49.072;7.970;2022-07-09T10:47:04;37.50;52.40
13563;DHT22;31150;49.072;7.970;2022-07-09T10:52:08;37.60;53.00
13563;DHT22;31150;49.072;7.970;2022-07-09T10:57:11;37.10;50.90
13563;DHT22;31150;49.072;7.970;2022-07-09T11:02:19;33.80;53.80
13563;DHT22;31150;49.072;7.970;2022-07-09T11:07:24;30.30;62.00
13563;DHT22;31150;49.072;7.970;2022-07-09T11:18:29;28.70;69.70
13563;DHT22;31150;49.072;7.970;2022-07-09T11:24:11;30.20;66.10
13563;DHT22;31150;49.072;7.970;2022-07-09T11:29:19;31.70;59.40
13563;DHT22;31150;49.072;7.970;2022-07-09T11:34:22;33.70;55.20
13563;DHT22;31150;49.072;7.970;2022-07-09T11:39:32;35.10;52.80
13563;DHT22;31150;49.072;7.970;2022-07-09T11:44:41;35.30;53.40
13563;DHT22;31150;49.072;7.970;2022-07-09T11:49:45;32.90;54.30
13563;DHT22;31150;49.072;7.970;2022-07-09T11:55:00;32.30;56.40
13563;DHT22;31150;49.072;7.970;2022-07-09T12:00:07;31.80;57.70
13563;DHT22;31150;49.072;7.970;2022-07-09T12:05:30;31.30;58.40
13563;DHT22;31150;49.072;7.970;2022-07-09T12:10:36;31.10;59.10
13563;DHT22;31150;49.072;7.970;2022-07-09T12:15:41;31.50;57.40
13563;DHT22;31150;49.072;7.970;2022-07-09T12:21:02;31.50;58.00
13563;DHT22;31150;49.072;7.970;2022-07-09T12:26:06;31.30;57.90
13563;DHT22;31150;49.072;7.970;2022-07-09T12:31:27;30.70;59.60
13563;DHT22;31150;49.072;7.970;2022-07-09T12:36:31;30.70;60.30
13563;DHT22;31150;49.072;7.970;2022-07-09T12:41:55;30.40;60.40
13563;DHT22;31150;49.072;7.970;2022-07-09T12:47:02;29.80;60.90
13563;DHT22;31150;49.072;7.970;2022-07-09T12:52:27;29.50;61.30
13563;DHT22;31150;49.072;7.970;2022-07-09T12:57:33;30.10;59.80
13563;DHT22;31150;49.072;7.970;2022-07-09T13:02:37;30.80;58.40
13563;DHT22;31150;49.072;7.970;2022-07-09T13:07:40;31.20;58.80
13563;DHT22;31150;49.072;7.970;2022-07-09T13:12:43;31.20;58.40
13563;DHT22;31150;49.072;7.970;2022-07-09T13:17:45;29.90;60.20
13563;DHT22;31150;49.072;7.970;2022-07-09T13:22:53;30.40;61.30
13563;DHT22;31150;49.072;7.970;2022-07-09T13:27:56;30.70;58.70
13563;DHT22;31150;49.072;7.970;2022-07-09T13:38:02;33.00;57.00
13563;DHT22;31150;49.072;7.970;2022-07-09T13:53:11;35.50;63.60
13563;DHT22;31150;49.072;7.970;2022-07-09T13:58:13;38.60;55.90
13563;DHT22;31150;49.072;7.970;2022-07-09T14:03:16;41.40;50.90
13563;DHT22;31150;49.072;7.970;2022-07-09T14:13:27;37.90;52.10
13563;DHT22;31150;49.072;7.970;2022-07-09T14:18:31;36.70;53.20
13563;DHT22;31150;49.072;7.970;2022-07-09T14:28:39;34.40;53.20
13563;DHT22;31150;49.072;7.970;2022-07-09T15:04:55;31.00;52.20
13563;DHT22;31150;49.072;7.970;2022-07-09T15:09:58;32.40;52.60
13563;DHT22;31150;49.072;7.970;2022-07-09T15:20:05;34.80;47.90
13563;DHT22;31150;49.072;7.970;2022-07-09T16:01:10;31.20;50.90
13563;DHT22;31150;49.072;7.970;2022-07-09T16:51:59;29.90;56.60
13563;DHT22;31150;49.072;7.970;2022-07-09T16:57:01;29.30;56.70
13563;DHT22;31150;49.072;7.970;2022-07-09T17:02:04;29.30;57.30
13563;DHT22;31150;49.072;7.970;2022-07-09T17:07:07;29.00;59.90
13563;DHT22;31150;49.072;7.970;2022-07-09T17:12:10;28.50;62.00
13563;DHT22;31150;49.072;7.970;2022-07-09T17:17:12;28.40;61.60
13563;DHT22;31150;49.072;7.970;2022-07-09T17:22:15;27.90;69.10
13563;DHT22;31150;49.072;7.970;2022-07-09T17:47:33;27.10;76.50
13563;DHT22;31150;49.072;7.970;2022-07-09T17:52:39;27.30;75.10
13563;DHT22;31150;49.072;7.970;2022-07-09T18:02:46;26.70;82.30
13563;DHT22;31150;49.072;7.970;2022-07-09T18:12:52;25.90;85.90
13563;DHT22;31150;49.072;7.970;2022-07-09T18:17:55;25.40;89.10
13563;DHT22;31150;49.072;7.970;2022-07-09T18:28:10;25.00;90.70
13563;DHT22;31150;49.072;7.970;2022-07-09T18:33:13;24.70;91.50
13563;DHT22;31150;49.072;7.970;2022-07-09T18:38:15;24.50;92.70
13563;DHT22;31150;49.072;7.970;2022-07-09T18:48:21;24.40;93.80
13563;DHT22;31150;49.072;7.970;2022-07-09T18:58:32;23.80;96.20
13563;DHT22;31150;49.072;7.970;2022-07-09T19:03:38;23.80;96.10
13563;DHT22;31150;49.072;7.970;2022-07-09T19:08:41;24.10;91.90
13563;DHT22;31150;49.072;7.970;2022-07-09T19:13:44;24.30;91.60
13563;DHT22;31150;49.072;7.970;2022-07-09T19:18:47;24.20;92.20
13563;DHT22;31150;49.072;7.970;2022-07-09T19:23:50;24.10;93.00
13563;DHT22;31150;49.072;7.970;2022-07-09T19:33:56;23.70;94.60
13563;DHT22;31150;49.072;7.970;2022-07-09T19:39:05;23.60;95.30
13563;DHT22;31150;49.072;7.970;2022-07-09T19:55:18;23.50;97.50
13563;DHT22;31150;49.072;7.970;2022-07-09T20:00:21;23.20;96.60
13563;DHT22;31150;49.072;7.970;2022-07-09T20:10:28;23.20;97.10
13563;DHT22;31150;49.072;7.970;2022-07-09T20:15:32;23.00;97.90
13563;DHT22;31150;49.072;7.970;2022-07-09T20:20:35;23.10;98.00
13563;DHT22;31150;49.072;7.970;2022-07-09T20:25:40;23.30;98.10
13563;DHT22;31150;49.072;7.970;2022-07-09T20:36:49;23.20;98.20
13563;DHT22;31150;49.072;7.970;2022-07-09T20:41:51;23.20;98.60
13563;DHT22;31150;49.072;7.970;2022-07-09T20:46:58;23.00;99.70
13563;DHT22;31150;49.072;7.970;2022-07-09T20:52:13;22.80;99.90
13563;DHT22;31150;49.072;7.970;2022-07-09T20:57:15;22.60;99.90
13563;DHT22;31150;49.072;7.970;2022-07-09T21:07:58;22.30;99.90
13563;DHT22;31150;49.072;7.970;2022-07-09T21:13:01;22.20;99.90
13563;DHT22;31150;49.072;7.970;2022-07-09T21:18:05;22.00;99.90
13563;DHT22;31150;49.072;7.970;2022-07-09T21:23:27;21.70;99.90
13563;DHT22;31150;49.072;7.970;2022-07-09T21:33:33;21.50;99.90
13563;DHT22;31150;49.072;7.970;2022-07-09T21:38:36;21.50;99.90
13563;DHT22;31150;49.072;7.970;2022-07-09T21:48:42;21.70;99.90
13563;DHT22;31150;49.072;7.970;2022-07-09T21:53:45;21.40;99.90
13563;DHT22;31150;49.072;7.970;2022-07-09T21:58:48;21.20;99.90
13563;DHT22;31150;49.072;7.970;2022-07-09T22:03:50;21.50;99.90
13563;DHT22;31150;49.072;7.970;2022-07-09T22:08:53;21.20;99.90
13563;DHT22;31150;49.072;7.970;2022-07-09T22:13:56;21.00;99.90
13563;DHT22;31150;49.072;7.970;2022-07-09T22:18:59;20.90;99.90
13563;DHT22;31150;49.072;7.970;2022-07-09T22:24:01;20.80;99.90
13563;DHT22;31150;49.072;7.970;2022-07-09T22:29:04;20.50;99.90
13563;DHT22;31150;49.072;7.970;2022-07-09T22:34:07;20.60;99.90
13563;DHT22;31150;49.072;7.970;2022-07-09T22:44:13;20.40;99.90
13563;DHT22;31150;49.072;7.970;2022-07-09T22:49:15;20.10;99.90
13563;DHT22;31150;49.072;7.970;2022-07-09T22:54:18;20.40;99.90
13563;DHT22;31150;49.072;7.970;2022-07-09T23:04:25;20.40;99.90
13563;DHT22;31150;49.072;7.970;2022-07-09T23:09:28;20.10;99.90
13563;DHT22;31150;49.072;7.970;2022-07-09T23:19:34;20.20;99.90
13563;DHT22;31150;49.072;7.970;2022-07-09T23:24:36;20.00;99.90
13563;DHT22;31150;49.072;7.970;2022-07-09T23:29:39;19.90;99.90
13563;DHT22;31150;49.072;7.970;2022-07-09T23:34:44;20.00;99.90
13563;DHT22;31150;49.072;7.970;2022-07-09T23:40:14;19.80;99.90
13563;DHT22;31150;49.072;7.970;2022-07-09T23:45:18;19.60;99.90
13563;DHT22;31150;49.072;7.970;2022-07-09T23:50:21;19.60;99.90
13563;DHT22;31150;49.072;7.970;2022-07-09T23:55:23;19.50;99.90
